createdAt,value
2022-12-06T00:00:20.007Z,101027.50
2022-12-06T00:04:23.384Z,101019.56
2022-12-06T00:08:27.844Z,101020.97
2022-12-06T00:12:31.048Z,101013.84
2022-12-06T00:16:35.595Z,101012.72
2022-12-06T00:20:38.792Z,101020.38
2022-12-06T00:24:43.224Z,101019.25
2022-12-06T00:28:46.895Z,101027.88
2022-12-06T00:32:49.950Z,101016.09
2022-12-06T00:36:53.003Z,101011.09
2022-12-06T00:41:01.611Z,101021.72
2022-12-06T00:45:05.396Z,101011.50
2022-12-06T00:49:09.614Z,101006.81
2022-12-06T00:53:12.657Z,101002.69
2022-12-06T00:57:17.427Z,101002.41
2022-12-06T01:01:22.024Z,101007.50
2022-12-06T01:05:25.406Z,101004.66
2022-12-06T01:09:30.987Z,101006.91
2022-12-06T01:13:35.617Z,100999.50
2022-12-06T01:17:38.666Z,101006.31
2022-12-06T01:21:41.753Z,101013.97
2022-12-06T01:25:52.299Z,101003.72
2022-12-06T01:29:56.826Z,101014.53
2022-12-06T01:33:59.974Z,101012.53
2022-12-06T01:38:06.112Z,101017.94
2022-12-06T01:42:11.861Z,101013.94
2022-12-06T01:46:32.092Z,101011.63
2022-12-06T01:50:38.105Z,101009.63
2022-12-06T01:54:41.414Z,101011.28
2022-12-06T01:58:47.447Z,101007.94
2022-12-06T02:02:52.054Z,101016.41
2022-12-06T02:06:56.644Z,100996.19
2022-12-06T02:11:02.429Z,100993.47
2022-12-06T02:15:06.355Z,100999.56
2022-12-06T02:19:36.889Z,101000.28
2022-12-06T02:24:20.585Z,100993.56
2022-12-06T02:28:47.973Z,100990.56
2022-12-06T02:33:01.548Z,100991.56
2022-12-06T02:37:12.678Z,100990.44
2022-12-06T02:41:22.239Z,100988.94
2022-12-06T02:45:29.370Z,100988.94
2022-12-06T02:49:36.147Z,100992.06
2022-12-06T02:53:42.694Z,100987.81
2022-12-06T02:57:47.740Z,100986.34
2022-12-06T03:01:57.457Z,100973.22
2022-12-06T03:06:17.783Z,100976.31
2022-12-06T03:10:32.882Z,100978.31
2022-12-06T03:14:41.677Z,100976.69
2022-12-06T03:18:50.761Z,100975.22
2022-12-06T03:23:02.402Z,100975.06
2022-12-06T03:27:10.791Z,100974.91
2022-12-06T03:31:15.613Z,100976.78
2022-12-06T03:35:23.543Z,100971.66
2022-12-06T03:39:36.130Z,100969.03
2022-12-06T03:43:39.266Z,100965.03
2022-12-06T03:47:51.581Z,100968.41
2022-12-06T03:51:55.154Z,100969.81
2022-12-06T03:56:00.211Z,100979.75
2022-12-06T04:00:05.165Z,100982.72
2022-12-06T04:04:15.084Z,100974.28
2022-12-06T04:08:18.317Z,100978.81
2022-12-06T04:12:40.870Z,100978.94
2022-12-06T04:17:01.410Z,100971.25
2022-12-06T04:21:23.185Z,100977.03
2022-12-06T04:25:26.324Z,100968.22
2022-12-06T04:29:48.328Z,100969.59
2022-12-06T04:34:09.369Z,100970.25
2022-12-06T04:38:29.945Z,100966.75
2022-12-06T04:42:50.278Z,100969.59
2022-12-06T04:46:54.792Z,100970.28
2022-12-06T04:50:57.877Z,100978.41
2022-12-06T04:55:01.295Z,100972.69
2022-12-06T04:59:04.450Z,100975.31
2022-12-06T05:03:08.906Z,100966.56
2022-12-06T05:07:12.378Z,100971.66
2022-12-06T05:11:15.408Z,100981.88
2022-12-06T05:15:18.466Z,100977.16
2022-12-06T05:19:23.464Z,100986.72
2022-12-06T05:23:27.549Z,100985.69
2022-12-06T05:27:35.769Z,100980.66
2022-12-06T05:31:39.302Z,100985.00
2022-12-06T05:35:44.073Z,100990.28
2022-12-06T05:39:47.125Z,100979.59
2022-12-06T05:43:50.376Z,100977.25
2022-12-06T05:47:53.451Z,100977.25
2022-12-06T05:52:02.497Z,100980.97
2022-12-06T05:56:09.204Z,100984.06
2022-12-06T06:00:13.223Z,100976.00
2022-12-06T06:04:16.347Z,100973.97
2022-12-06T06:08:20.796Z,100980.78
2022-12-06T06:12:23.946Z,100979.91
2022-12-06T06:16:27.041Z,100984.81
2022-12-06T06:20:30.395Z,100974.50
2022-12-06T06:24:37.752Z,100983.47
2022-12-06T06:28:40.872Z,100982.47
2022-12-06T06:32:44.007Z,100982.16
2022-12-06T06:36:47.117Z,100973.69
2022-12-06T06:40:51.551Z,100972.69
2022-12-06T06:44:55.621Z,100974.06
2022-12-06T06:48:58.699Z,100972.75
2022-12-06T06:53:01.736Z,100974.13
2022-12-06T06:57:06.382Z,100983.06
2022-12-06T07:01:11.339Z,100976.81
2022-12-06T07:05:14.569Z,100983.63
2022-12-06T07:09:17.821Z,100972.94
2022-12-06T07:13:24.352Z,100992.44
2022-12-06T07:17:27.448Z,100959.06
2022-12-06T07:21:30.555Z,100965.34
2022-12-06T07:25:33.726Z,100972.13
2022-12-06T07:29:38.800Z,100976.19
2022-12-06T07:33:42.850Z,100974.50
2022-12-06T07:37:46.624Z,100969.94
2022-12-06T07:42:07.330Z,100978.56
2022-12-06T07:46:18.322Z,100980.28
2022-12-06T07:50:23.594Z,100982.66
2022-12-06T07:54:26.830Z,100981.31
2022-12-06T07:58:31.283Z,100985.72
2022-12-06T08:02:35.815Z,100990.13
2022-12-06T08:06:39.018Z,100988.31
2022-12-06T08:10:42.330Z,100994.59
2022-12-06T08:14:45.586Z,100997.84
2022-12-06T08:18:50.337Z,101004.78
2022-12-06T08:22:53.392Z,101001.72
2022-12-06T08:26:56.639Z,101010.88
2022-12-06T08:31:03.036Z,101014.44
2022-12-06T08:35:08.757Z,101008.53
2022-12-06T08:39:13.669Z,101000.38
2022-12-06T08:43:16.851Z,101006.84
2022-12-06T08:47:20.262Z,100995.31
2022-12-06T08:51:25.301Z,101001.25
2022-12-06T08:55:28.353Z,101001.44
2022-12-06T08:59:31.844Z,101006.88
2022-12-06T09:03:35.010Z,101016.38
2022-12-06T09:07:39.472Z,101015.00
2022-12-06T09:11:43.436Z,101018.09
2022-12-06T09:15:46.569Z,101024.34
2022-12-06T09:19:49.832Z,101024.19
2022-12-06T09:23:56.597Z,101023.19
2022-12-06T09:28:00.742Z,101021.03
2022-12-06T09:32:03.968Z,101026.63
2022-12-06T09:36:12.070Z,101028.50
2022-12-06T09:40:25.437Z,101037.34
2022-12-06T09:44:43.518Z,101036.28
2022-12-06T09:49:12.216Z,101040.56
2022-12-06T09:53:23.856Z,101041.22
2022-12-06T09:57:35.126Z,101044.63
2022-12-06T10:01:54.400Z,101043.41
2022-12-06T10:06:02.948Z,101048.00
2022-12-06T10:10:17.663Z,101051.75
2022-12-06T10:14:37.909Z,101052.75
2022-12-06T10:18:55.373Z,101044.28
2022-12-06T10:23:10.112Z,101036.16
2022-12-06T10:27:17.532Z,101034.66
2022-12-06T10:31:25.991Z,101021.91
2022-12-06T10:35:42.389Z,101017.50
2022-12-06T10:39:52.191Z,101016.50
2022-12-06T10:43:59.643Z,101008.72
2022-12-06T10:48:10.711Z,101011.41
2022-12-06T10:52:23.941Z,101009.72
2022-12-06T10:56:30.684Z,101002.56
2022-12-06T11:00:39.298Z,101000.22
2022-12-06T11:04:46.129Z,100998.16
2022-12-06T11:08:53.792Z,101002.25
2022-12-06T11:13:02.520Z,101001.88
2022-12-06T11:17:08.346Z,100997.63
2022-12-06T11:21:23.163Z,100997.84
2022-12-06T11:25:32.752Z,100992.75
2022-12-06T11:29:37.336Z,100992.56
2022-12-06T11:33:40.554Z,100987.59
2022-12-06T11:37:47.023Z,100997.09
2022-12-06T11:41:54.115Z,100996.59
2022-12-06T11:45:58.071Z,101005.47
2022-12-06T11:50:07.811Z,100999.88
2022-12-06T11:54:23.707Z,101000.22
2022-12-06T11:58:34.090Z,100998.50
2022-12-06T12:02:37.383Z,100991.53
2022-12-06T12:06:41.089Z,101000.09
2022-12-06T12:10:47.621Z,100977.88
2022-12-06T12:14:58.158Z,100961.72
2022-12-06T12:19:03.895Z,100955.00
2022-12-06T12:23:15.645Z,100941.56
2022-12-06T12:27:33.597Z,100934.81
2022-12-06T12:31:47.719Z,100902.47
2022-12-06T12:35:56.553Z,100890.59
2022-12-06T12:40:02.738Z,100895.16
2022-12-06T12:48:42.675Z,100899.88
2022-12-06T12:52:46.035Z,100910.28
2022-12-06T12:56:50.068Z,100895.72
2022-12-06T13:00:57.105Z,100881.38
2022-12-06T13:05:31.278Z,100851.63
2022-12-06T13:09:30.064Z,100868.88
2022-12-06T13:13:38.544Z,100870.75
2022-12-06T13:17:45.479Z,100884.66
2022-12-06T13:21:50.307Z,100876.13
2022-12-06T13:25:59.051Z,100882.94
2022-12-06T13:30:05.751Z,100879.91
2022-12-06T13:34:36.076Z,100888.53
2022-12-06T13:38:42.183Z,100905.28
2022-12-06T13:42:46.860Z,100896.94
2022-12-06T13:46:49.966Z,100895.25
2022-12-06T13:50:57.915Z,100874.59
2022-12-06T13:55:39.543Z,100840.94
2022-12-06T13:59:42.618Z,100834.50
2022-12-06T14:03:55.897Z,100853.25
2022-12-06T14:08:00.392Z,100866.38
2022-12-06T14:12:09.891Z,100870.47
2022-12-06T14:16:21.322Z,100874.66
2022-12-06T14:20:27.747Z,100887.94
2022-12-06T14:24:37.907Z,100881.75
2022-12-06T14:28:41.291Z,100884.00
2022-12-06T14:32:46.115Z,100879.84
2022-12-06T14:36:50.113Z,100879.72
2022-12-06T14:41:12.697Z,100885.13
2022-12-06T14:45:18.017Z,100889.88
2022-12-06T14:49:40.951Z,100882.25
2022-12-06T14:53:44.665Z,100875.00
2022-12-06T14:57:51.133Z,100865.47
2022-12-06T15:01:56.601Z,100873.22
2022-12-06T15:06:16.558Z,100861.38
2022-12-06T15:10:30.016Z,100869.81
2022-12-06T15:14:49.241Z,100879.72
2022-12-06T15:18:58.839Z,100884.31
2022-12-06T15:23:01.979Z,100892.66
2022-12-06T15:27:05.094Z,100894.69
2022-12-06T15:31:18.244Z,100896.59
2022-12-06T15:35:21.546Z,100903.69
2022-12-06T15:39:24.970Z,100909.97
2022-12-06T15:43:31.624Z,100905.88
2022-12-06T15:47:36.126Z,100906.91
2022-12-06T15:51:39.218Z,100902.16
2022-12-06T15:55:42.689Z,100902.50
2022-12-06T15:59:46.014Z,100893.03
2022-12-06T16:03:51.369Z,100897.94
2022-12-06T16:07:54.742Z,100892.34
2022-12-06T16:11:57.951Z,100896.06
2022-12-06T16:16:01.345Z,100896.41
2022-12-06T16:20:24.652Z,100901.84
2022-12-06T16:24:27.752Z,100906.41
2022-12-06T16:28:31.314Z,100896.75
2022-12-06T16:32:34.421Z,100893.34
2022-12-06T16:36:55.548Z,100885.88
2022-12-06T16:41:04.982Z,100898.06
2022-12-06T16:45:09.201Z,100891.28
2022-12-06T16:53:42.591Z,100884.50
2022-12-06T16:57:46.009Z,100885.03
2022-12-06T17:01:50.811Z,100890.09
2022-12-06T17:05:54.145Z,100889.41
2022-12-06T17:09:58.941Z,100881.13
2022-12-06T17:14:02.464Z,100883.34
2022-12-06T17:18:05.840Z,100874.00
2022-12-06T17:22:11.404Z,100883.84
2022-12-06T17:26:15.913Z,100878.56
2022-12-06T17:30:20.015Z,100874.69
2022-12-06T17:34:25.887Z,100879.78
2022-12-06T17:38:30.751Z,100867.25
2022-12-06T17:42:52.862Z,100876.88
2022-12-06T17:46:56.036Z,100873.34
2022-12-06T17:50:59.387Z,100870.63
2022-12-06T17:55:03.008Z,100872.66
2022-12-06T17:59:10.150Z,100876.06
2022-12-06T18:03:15.753Z,100866.91
2022-12-06T18:07:19.610Z,100862.31
2022-12-06T18:11:23.365Z,100870.31
2022-12-06T18:15:41.016Z,100862.84
2022-12-06T18:19:46.932Z,100863.19
2022-12-06T18:24:19.676Z,100858.25
2022-12-06T18:28:14.426Z,100858.78
2022-12-06T18:32:18.999Z,100858.94
2022-12-06T18:36:22.241Z,100858.09
2022-12-06T18:40:25.598Z,100859.28
2022-12-06T18:44:29.331Z,100867.75
2022-12-06T18:48:38.719Z,100867.41
2022-12-06T18:52:42.268Z,100859.59
2022-12-06T18:56:46.595Z,100864.34
2022-12-06T19:00:50.216Z,100874.69
2022-12-06T19:04:55.042Z,100869.78
2022-12-06T19:09:01.200Z,100864.19
2022-12-06T19:13:06.073Z,100856.06
2022-12-06T19:17:12.038Z,100863.31
2022-12-06T19:21:17.881Z,100860.31
2022-12-06T19:25:22.866Z,100865.03
2022-12-06T19:29:26.785Z,100856.75
2022-12-06T19:33:31.105Z,100864.69
2022-12-06T19:37:35.631Z,100864.19
2022-12-06T19:41:59.319Z,100862.50
2022-12-06T19:46:09.449Z,100851.31
2022-12-06T19:50:12.577Z,100864.53
2022-12-06T19:54:20.727Z,100850.31
2022-12-06T19:58:24.114Z,100848.28
2022-12-06T20:02:27.263Z,100839.13
2022-12-06T20:06:30.459Z,100833.38
2022-12-06T20:10:38.143Z,100852.50
2022-12-06T20:14:44.098Z,100843.00
2022-12-06T20:18:47.328Z,100842.84
2022-12-06T20:22:50.759Z,100843.53
2022-12-06T20:26:56.423Z,100847.25
2022-12-06T20:30:59.580Z,100847.25
2022-12-06T20:35:03.016Z,100847.25
2022-12-06T20:39:06.632Z,100838.44
2022-12-06T20:43:11.165Z,100836.41
2022-12-06T20:47:14.372Z,100836.06
2022-12-06T20:51:19.582Z,100843.69
2022-12-06T20:55:22.657Z,100841.66
2022-12-06T20:59:27.473Z,100839.47
2022-12-06T21:03:32.096Z,100830.47
2022-12-06T21:07:35.164Z,100834.03
2022-12-06T21:11:38.756Z,100834.72
2022-12-06T21:15:43.214Z,100835.88
2022-12-06T21:19:46.284Z,100824.69
2022-12-06T21:23:49.353Z,100823.34
2022-12-06T21:27:52.364Z,100827.25
2022-12-06T21:31:56.725Z,100828.63
2022-12-06T21:36:03.531Z,100824.88
2022-12-06T21:40:07.977Z,100830.31
2022-12-06T21:44:11.101Z,100827.41
2022-12-06T21:48:15.777Z,100826.25
2022-12-06T21:52:18.926Z,100836.75
2022-12-06T21:56:25.139Z,100842.19
2022-12-06T22:00:28.278Z,100835.38
2022-12-06T22:04:32.707Z,100826.25
2022-12-06T22:08:36.515Z,100839.13
2022-12-06T22:12:39.589Z,100835.56
2022-12-06T22:16:42.914Z,100842.19
2022-12-06T22:20:57.651Z,100834.38
2022-12-06T22:25:01.102Z,100836.75
2022-12-06T22:29:04.303Z,100837.09
2022-12-06T22:33:07.372Z,100836.06
2022-12-06T22:37:11.837Z,100843.53
2022-12-06T22:41:14.952Z,100844.88
2022-12-06T22:45:18.289Z,100846.56
2022-12-06T22:49:21.360Z,100842.66
2022-12-06T22:53:25.778Z,100840.28
2022-12-06T22:57:28.942Z,100839.13
2022-12-06T23:01:34.276Z,100841.16
2022-12-06T23:05:37.462Z,100835.41
2022-12-06T23:09:41.918Z,100838.09
2022-12-06T23:13:45.206Z,100837.44
2022-12-06T23:17:48.354Z,100832.00
2022-12-06T23:21:51.474Z,100829.97
2022-12-06T23:25:56.055Z,100829.28
2022-12-06T23:29:59.351Z,100824.34
2022-12-06T23:34:05.226Z,100819.47
2022-12-06T23:38:08.347Z,100826.41
2022-12-06T23:42:13.084Z,100828.44
2022-12-06T23:46:21.960Z,100810.66
2022-12-06T23:50:25.553Z,100811.16
2022-12-06T23:54:28.771Z,100818.28
2022-12-06T23:58:33.274Z,100813.53
